Time;durP1;ratioP1;P1;durP2;ratioP2;P2;SDS_P1;SDS_P2;PMS_P1;PMS_P2;Temp;Humidity;BMP_temperature;BMP_pressure;BME280_temperature;BME280_humidity;BME280_pressure;Samples;Min_cycle;Max_cycle;Signal;HPM_P1;HPM_P2
2023/12/19 00:00:30;;;;;;;;;;;;;;;21.99;37.44;102396.00;5033301;28;19927;-45
2023/12/19 00:02:56;;;;;;;;;;;;;;;21.99;37.28;102404.13;5059261;28;19918;-48
2023/12/19 00:05:21;;;;;;;;;;;;;;;21.96;37.14;102399.91;5029681;28;20362;-45
2023/12/19 00:07:46;;;;;;;;;;;;;;;21.94;37.35;102382.94;5023256;28;19916;-46
2023/12/19 00:10:11;;;;;;;;;;;;;;;21.92;37.52;102376.84;5013900;28;19955;-48
2023/12/19 00:12:37;;;;;;;;;;;;;;;21.90;37.53;102381.53;5010290;28;20001;-48
2023/12/19 00:15:02;;;;;;;;;;;;;;;21.89;37.60;102371.72;5025310;28;19920;-46
2023/12/19 00:17:28;;;;;;;;;;;;;;;21.89;37.40;102368.16;5030106;28;19912;-47
2023/12/19 00:19:55;;;;;;;;;;;;;;;21.87;37.42;102354.75;5014063;28;19918;-47
2023/12/19 00:22:21;;;;;;;;;;;;;;;21.85;37.49;102364.06;5035862;28;19945;-46
2023/12/19 00:24:46;;;;;;;;;;;;;;;21.82;37.33;102359.78;5028116;28;19924;-46
2023/12/19 00:27:11;;;;;;;;;;;;;;;21.80;37.64;102350.97;5008398;28;19918;-47
2023/12/19 00:29:36;;;;;;;;;;;;;;;21.79;37.52;102346.56;5027699;28;19968;-48
2023/12/19 00:32:01;;;;;;;;;;;;;;;21.79;37.85;102340.28;5034938;28;19922;-49
2023/12/19 00:34:26;;;;;;;;;;;;;;;21.77;37.56;102339.59;5007261;28;19997;-47
2023/12/19 00:36:52;;;;;;;;;;;;;;;21.74;37.56;102337.19;5019286;28;20398;-46
2023/12/19 00:39:17;;;;;;;;;;;;;;;21.74;37.55;102327.19;5022483;28;19914;-45
2023/12/19 00:41:42;;;;;;;;;;;;;;;21.73;37.85;102320.09;5038297;28;20379;-49
2023/12/19 00:44:07;;;;;;;;;;;;;;;21.69;37.49;102316.84;5038079;28;19956;-48
2023/12/19 00:46:33;;;;;;;;;;;;;;;21.69;37.82;102310.56;5018838;28;19916;-46
2023/12/19 00:48:58;;;;;;;;;;;;;;;21.68;37.68;102311.59;5017865;28;19914;-46
2023/12/19 00:51:24;;;;;;;;;;;;;;;21.66;37.96;102311.75;5012465;28;19918;-45
2023/12/19 00:53:49;;;;;;;;;;;;;;;21.64;37.95;102305.63;5020845;28;19914;-45
2023/12/19 00:56:14;;;;;;;;;;;;;;;21.64;37.76;102310.19;5026564;28;20000;-43
2023/12/19 00:58:39;;;;;;;;;;;;;;;21.63;37.79;102305.78;5034709;28;19921;-46
2023/12/19 01:01:05;;;;;;;;;;;;;;;21.61;37.77;102315.91;5045761;28;19957;-47
2023/12/19 01:03:31;;;;;;;;;;;;;;;21.60;37.93;102301.53;5083976;28;20732;-47
2023/12/19 01:05:56;;;;;;;;;;;;;;;21.58;37.76;102302.66;5015947;28;19922;-48
2023/12/19 01:08:21;;;;;;;;;;;;;;;21.58;37.73;102305.38;5029673;28;19924;-49
2023/12/19 01:10:46;;;;;;;;;;;;;;;21.56;37.89;102301.97;5024141;28;19912;-50
2023/12/19 01:13:11;;;;;;;;;;;;;;;21.55;37.69;102293.00;5043883;28;20000;-50
2023/12/19 01:15:37;;;;;;;;;;;;;;;21.54;37.99;102293.19;5048547;28;19963;-49
2023/12/19 01:18:02;;;;;;;;;;;;;;;21.52;38.04;102293.31;5028121;28;19917;-48
2023/12/19 01:20:27;;;;;;;;;;;;;;;21.52;37.80;102292.47;5011902;28;19959;-46
2023/12/19 01:22:52;;;;;;;;;;;;;;;21.50;37.76;102284.50;5020449;28;19913;-46
2023/12/19 01:25:17;;;;;;;;;;;;;;;21.49;38.02;102273.81;5034091;28;19920;-50
2023/12/19 01:27:43;;;;;;;;;;;;;;;21.47;38.11;102268.56;5033703;28;19913;-49
2023/12/19 01:30:08;;;;;;;;;;;;;;;21.46;38.18;102269.56;5025385;28;19917;-49
2023/12/19 01:32:33;;;;;;;;;;;;;;;21.45;38.21;102267.84;5061789;28;19960;-45
2023/12/19 01:34:59;;;;;;;;;;;;;;;21.43;38.13;102270.72;5013184;28;19988;-45
2023/12/19 01:37:24;;;;;;;;;;;;;;;21.42;38.05;102270.88;5007336;28;19916;-46
2023/12/19 01:39:49;;;;;;;;;;;;;;;21.41;38.24;102275.44;5021923;28;19913;-47
2023/12/19 01:42:14;;;;;;;;;;;;;;;21.40;38.22;102275.59;5039680;28;19918;-44
2023/12/19 01:44:39;;;;;;;;;;;;;;;21.38;37.91;102278.44;5023357;28;19962;-44
2023/12/19 01:47:04;;;;;;;;;;;;;;;21.38;38.08;102277.59;5036110;28;19971;-45
2023/12/19 01:49:30;;;;;;;;;;;;;;;21.36;38.08;102277.72;5013287;28;20396;-47
2023/12/19 01:51:55;;;;;;;;;;;;;;;21.34;37.87;102268.94;5014061;28;20655;-48
2023/12/19 01:54:20;;;;;;;;;;;;;;;21.33;38.13;102266.41;5075051;28;20364;-47
2023/12/19 01:56:46;;;;;;;;;;;;;;;21.31;38.05;102265.66;5062169;28;19953;-48
2023/12/19 01:59:11;;;;;;;;;;;;;;;21.30;38.18;102272.06;5021584;28;19928;-48
2023/12/19 02:01:36;;;;;;;;;;;;;;;21.28;38.20;102257.81;5035655;28;19936;-48
2023/12/19 02:04:01;;;;;;;;;;;;;;;21.27;38.42;102254.28;5062473;28;19925;-49
2023/12/19 02:06:26;;;;;;;;;;;;;;;21.27;38.44;102245.31;5005308;28;19925;-49
2023/12/19 02:08:51;;;;;;;;;;;;;;;21.25;38.23;102236.50;5085617;28;19940;-49
2023/12/19 02:11:17;;;;;;;;;;;;;;;21.24;38.26;102241.06;5058544;28;19914;-46
2023/12/19 02:13:42;;;;;;;;;;;;;;;21.21;38.49;102244.06;5017198;28;19918;-50
2023/12/19 02:16:08;;;;;;;;;;;;;;;21.20;38.40;102256.75;5009341;28;19979;-49
2023/12/19 02:18:33;;;;;;;;;;;;;;;21.20;38.36;102236.97;5028946;28;19996;-47
2023/12/19 02:20:59;;;;;;;;;;;;;;;21.18;38.19;102230.84;5067482;28;19922;-46
2023/12/19 02:23:24;;;;;;;;;;;;;;;21.17;38.46;102229.16;5029663;28;20019;-49
2023/12/19 02:25:51;;;;;;;;;;;;;;;21.15;38.27;102228.44;5051364;28;19928;-51
2023/12/19 02:28:16;;;;;;;;;;;;;;;21.13;38.49;102216.94;5023678;28;19922;-48
2023/12/19 02:30:41;;;;;;;;;;;;;;;21.12;38.31;102218.78;5019365;28;19917;-49
2023/12/19 02:33:06;;;;;;;;;;;;;;;21.11;38.58;102218.91;5025156;28;19917;-49
2023/12/19 02:35:32;;;;;;;;;;;;;;;21.09;38.52;102218.22;5045311;28;19912;-50
2023/12/19 02:37:57;;;;;;;;;;;;;;;21.08;38.55;102211.97;5063812;28;19913;-46
2023/12/19 02:40:23;;;;;;;;;;;;;;;21.05;38.56;102214.13;5051430;28;19913;-49
2023/12/19 02:42:48;;;;;;;;;;;;;;;21.03;38.61;102211.59;5036076;28;19918;-48
2023/12/19 02:45:13;;;;;;;;;;;;;;;21.03;38.62;102210.75;5016368;28;19966;-49
2023/12/19 02:47:39;;;;;;;;;;;;;;;21.01;38.61;102199.19;5016735;28;20263;-47
2023/12/19 02:50:04;;;;;;;;;;;;;;;20.99;38.64;102191.25;5064477;28;19940;-48
2023/12/19 02:52:30;;;;;;;;;;;;;;;20.99;38.68;102179.59;5045980;28;19923;-49
2023/12/19 02:54:55;;;;;;;;;;;;;;;20.96;38.40;102172.63;5044094;28;19921;-50
2023/12/19 02:57:20;;;;;;;;;;;;;;;20.95;38.46;102169.06;5024668;28;20068;-46
2023/12/19 02:59:45;;;;;;;;;;;;;;;20.94;38.45;102156.56;5019162;28;20491;-47
2023/12/19 03:02:10;;;;;;;;;;;;;;;20.93;38.53;102146.72;5009216;28;19941;-47
2023/12/19 03:04:37;;;;;;;;;;;;;;;20.93;38.66;102145.88;5027815;28;20003;-47
2023/12/19 03:07:02;;;;;;;;;;;;;;;20.91;38.73;102147.91;5032344;28;19914;-47
2023/12/19 03:09:28;;;;;;;;;;;;;;;20.89;38.74;102139.91;5024579;28;19957;-49
2023/12/19 03:12:00;;;;;;;;;;;;;;;20.89;38.81;102145.31;5024470;28;19920;-49
2023/12/19 03:14:25;;;;;;;;;;;;;;;20.88;38.68;102138.22;5086668;28;19922;-48
2023/12/19 03:16:50;;;;;;;;;;;;;;;20.87;38.82;102141.09;5016378;28;19918;-46
2023/12/19 03:19:15;;;;;;;;;;;;;;;20.86;38.83;102131.28;5017128;28;19962;-47
2023/12/19 03:21:40;;;;;;;;;;;;;;;20.85;38.78;102126.88;5039375;28;19957;-49
2023/12/19 03:24:06;;;;;;;;;;;;;;;20.83;38.81;102121.63;5017015;28;19969;-47
2023/12/19 03:26:31;;;;;;;;;;;;;;;20.82;38.97;102117.22;5034130;28;19926;-47
2023/12/19 03:28:56;;;;;;;;;;;;;;;20.81;38.88;102109.25;5029617;28;19921;-51
2023/12/19 03:31:21;;;;;;;;;;;;;;;20.79;38.89;102103.16;5012827;28;19941;-46
2023/12/19 03:33:47;;;;;;;;;;;;;;;20.78;38.97;102099.59;5016139;28;19992;-49
2023/12/19 03:36:12;;;;;;;;;;;;;;;20.77;38.79;102097.88;5024503;28;20231;-46
2023/12/19 03:38:37;;;;;;;;;;;;;;;20.77;38.98;102091.63;5033420;28;19917;-48
2023/12/19 03:41:02;;;;;;;;;;;;;;;20.75;38.67;102089.09;5021977;28;19920;-49
2023/12/19 03:43:28;;;;;;;;;;;;;;;20.74;38.90;102091.97;5041511;28;19958;-49
2023/12/19 03:45:57;;;;;;;;;;;;;;;20.72;39.00;102087.53;5034985;28;19964;-50
2023/12/19 03:48:22;;;;;;;;;;;;;;;20.71;38.86;102085.84;5009996;28;19921;-47
2023/12/19 03:50:48;;;;;;;;;;;;;;;20.70;38.77;102088.72;5049092;28;19914;-47
2023/12/19 03:53:13;;;;;;;;;;;;;;;20.69;39.03;102076.19;5032033;28;20434;-49
2023/12/19 03:55:38;;;;;;;;;;;;;;;20.69;38.84;102078.91;5028349;28;19920;-49
2023/12/19 03:58:04;;;;;;;;;;;;;;;20.67;38.90;102073.63;5016319;28;19918;-48
2023/12/19 04:00:29;;;;;;;;;;;;;;;20.66;38.95;102062.97;5059035;28;19981;-46
2023/12/19 04:02:54;;;;;;;;;;;;;;;20.64;38.83;102054.16;5010853;28;19967;-47
2023/12/19 04:05:20;;;;;;;;;;;;;;;20.64;38.77;102051.47;5049083;28;19925;-49
2023/12/19 04:07:45;;;;;;;;;;;;;;;20.61;38.83;102049.94;5030459;28;19913;-47
2023/12/19 04:10:10;;;;;;;;;;;;;;;20.61;38.77;102030.16;5014789;28;19920;-48
2023/12/19 04:12:35;;;;;;;;;;;;;;;20.57;38.89;102021.50;5031803;28;19914;-49
2023/12/19 04:15:01;;;;;;;;;;;;;;;20.59;38.92;102021.34;5015700;28;19921;-47
2023/12/19 04:17:26;;;;;;;;;;;;;;;20.57;39.03;102016.13;5032517;28;19960;-50
2023/12/19 04:19:51;;;;;;;;;;;;;;;20.56;38.89;102000.03;5033069;28;19912;-50
2023/12/19 04:22:16;;;;;;;;;;;;;;;20.55;39.05;102004.59;5035748;28;19925;-50
2023/12/19 04:24:42;;;;;;;;;;;;;;;20.54;39.04;102002.06;5028208;28;19975;-46
2023/12/19 04:27:07;;;;;;;;;;;;;;;20.53;38.77;102003.06;5015313;28;19918;-50
2023/12/19 04:29:32;;;;;;;;;;;;;;;20.51;38.79;102000.50;5017547;28;19983;-48
2023/12/19 04:31:57;;;;;;;;;;;;;;;20.50;38.76;102003.38;5055155;28;19912;-46
2023/12/19 04:34:23;;;;;;;;;;;;;;;20.50;38.88;102008.75;5018073;28;19912;-47
2023/12/19 04:36:48;;;;;;;;;;;;;;;20.49;38.95;102007.91;5031751;28;19971;-48
2023/12/19 04:39:13;;;;;;;;;;;;;;;20.47;38.80;102002.66;5018216;28;20459;-50
2023/12/19 04:41:38;;;;;;;;;;;;;;;20.47;39.01;101994.53;5013906;28;19942;-49
2023/12/19 04:44:05;;;;;;;;;;;;;;;20.45;38.95;101991.13;5021725;28;19973;-48
2023/12/19 04:46:30;;;;;;;;;;;;;;;20.44;38.84;101986.72;5036353;28;19922;-47
2023/12/19 04:48:55;;;;;;;;;;;;;;;20.43;38.91;101981.47;5009588;28;19924;-47
2023/12/19 04:51:22;;;;;;;;;;;;;;;20.42;39.00;101985.16;5023808;28;19986;-49
2023/12/19 04:53:47;;;;;;;;;;;;;;;20.41;38.92;101967.28;5062380;28;19913;-46
2023/12/19 04:56:12;;;;;;;;;;;;;;;20.39;39.30;101980.06;5010069;28;19922;-47
2023/12/19 04:58:38;;;;;;;;;;;;;;;20.39;39.35;101974.66;5006467;28;19917;-45
2023/12/19 05:01:03;;;;;;;;;;;;;;;20.37;39.17;101969.44;5016625;28;19914;-48
2023/12/19 05:03:28;;;;;;;;;;;;;;;20.37;39.73;101968.59;5017072;28;19925;-48
2023/12/19 05:05:54;;;;;;;;;;;;;;;20.37;39.79;101973.97;5013201;28;19929;-49
2023/12/19 05:08:19;;;;;;;;;;;;;;;20.36;39.66;101967.75;5011949;28;19952;-46
2023/12/19 05:10:44;;;;;;;;;;;;;;;20.35;39.71;101966.03;5015306;28;19914;-49
2023/12/19 05:13:10;;;;;;;;;;;;;;;20.34;40.02;101969.72;5000632;28;19917;-49
2023/12/19 05:15:35;;;;;;;;;;;;;;;20.33;39.89;101976.13;5079833;28;19973;-48
2023/12/19 05:18:00;;;;;;;;;;;;;;;20.33;39.82;101978.00;5019045;28;19918;-47
2023/12/19 05:20:25;;;;;;;;;;;;;;;20.32;40.14;101971.75;5001815;28;19964;-49
2023/12/19 05:22:51;;;;;;;;;;;;;;;20.31;40.27;101972.75;5005117;28;19995;-46
2023/12/19 05:25:16;;;;;;;;;;;;;;;20.29;40.24;101974.75;5015557;28;20355;-45
2023/12/19 05:27:43;;;;;;;;;;;;;;;20.29;40.13;101968.50;5002628;28;19922;-46
2023/12/19 05:30:09;;;;;;;;;;;;;;;20.29;40.18;101968.50;5011825;28;20234;-46
2023/12/19 05:32:34;;;;;;;;;;;;;;;20.29;40.17;101963.94;5000908;28;19925;-46
2023/12/19 05:35:00;;;;;;;;;;;;;;;20.28;40.17;101956.00;5004173;28;19915;-47
2023/12/19 05:37:25;;;;;;;;;;;;;;;20.28;40.13;101964.94;5008642;28;19918;-49
2023/12/19 05:39:50;;;;;;;;;;;;;;;20.27;40.30;101965.09;5012863;28;19922;-46
2023/12/19 05:42:15;;;;;;;;;;;;;;;20.26;40.17;101961.53;5001214;28;19921;-45
2023/12/19 05:44:40;;;;;;;;;;;;;;;20.25;40.54;101965.25;5004578;28;19926;-50
2023/12/19 05:47:06;;;;;;;;;;;;;;;20.26;40.47;101960.69;5002680;28;19957;-47
2023/12/19 05:49:31;;;;;;;;;;;;;;;20.25;40.37;101959.84;4994045;28;19965;-45
2023/12/19 05:51:57;;;;;;;;;;;;;;;20.23;41.00;101957.31;4997328;28;19922;-46
2023/12/19 05:54:22;;;;;;;;;;;;;;;20.23;40.71;101953.75;4998583;28;19918;-46
2023/12/19 05:56:47;;;;;;;;;;;;;;;20.21;40.66;101951.19;4996467;28;19922;-47
2023/12/19 05:59:12;;;;;;;;;;;;;;;20.22;40.84;101949.38;5014039;28;20303;-50
2023/12/19 06:01:42;;;;;;;;;;;;;;;20.21;40.98;101948.50;5022947;28;19940;-45
2023/12/19 06:04:07;;;;;;;;;;;;;;;20.20;40.82;101949.50;5009078;28;19913;-47
2023/12/19 06:06:33;;;;;;;;;;;;;;;20.18;40.78;101946.13;5006619;28;19986;-45
2023/12/19 06:08:59;;;;;;;;;;;;;;;20.18;41.16;101951.50;5003399;28;19921;-46
2023/12/19 06:11:27;;;;;;;;;;;;;;;20.17;40.86;101947.09;5004830;28;19967;-47
2023/12/19 06:13:52;;;;;;;;;;;;;;;20.18;41.06;101945.25;5002311;28;19922;-46
2023/12/19 06:16:17;;;;;;;;;;;;;;;20.16;40.80;101942.69;5085840;28;19941;-46
2023/12/19 06:18:42;;;;;;;;;;;;;;;20.16;41.25;101940.00;5000770;28;19918;-49
2023/12/19 06:21:08;;;;;;;;;;;;;;;20.14;40.93;101933.91;4996792;28;19921;-48
2023/12/19 06:23:33;;;;;;;;;;;;;;;20.14;41.10;101931.22;4999185;28;20018;-49
2023/12/19 06:25:58;;;;;;;;;;;;;;;20.14;40.91;101916.88;5002310;28;19926;-48
2023/12/19 06:28:23;;;;;;;;;;;;;;;20.13;41.27;101912.44;5008699;28;19928;-47
2023/12/19 06:30:49;;;;;;;;;;;;;;;20.12;40.88;101914.31;5008406;28;20276;-47
2023/12/19 06:33:14;;;;;;;;;;;;;;;20.12;41.02;101918.84;5014734;28;19921;-49
2023/12/19 06:35:41;;;;;;;;;;;;;;;20.10;41.03;101908.22;5011749;28;19914;-47
2023/12/19 06:38:06;;;;;;;;;;;;;;;20.09;41.18;101901.13;5009861;28;19920;-47
2023/12/19 06:40:31;;;;;;;;;;;;;;;20.08;41.23;101902.09;5018964;28;19917;-46
2023/12/19 06:42:56;;;;;;;;;;;;;;;20.07;41.13;101888.78;5014500;28;19912;-48
2023/12/19 06:45:21;;;;;;;;;;;;;;;20.07;41.23;101891.47;5002345;28;19932;-47
2023/12/19 06:47:47;;;;;;;;;;;;;;;20.05;41.04;101891.63;5020472;28;20403;-48
2023/12/19 06:50:12;;;;;;;;;;;;;;;20.04;41.02;101887.22;5019318;28;19949;-49
2023/12/19 06:52:37;;;;;;;;;;;;;;;20.04;41.12;101894.47;5003674;28;19917;-51
2023/12/19 06:55:02;;;;;;;;;;;;;;;20.02;41.20;101883.84;5083341;28;19922;-47
2023/12/19 06:57:28;;;;;;;;;;;;;;;20.01;41.07;101886.66;5018443;28;19965;-49
2023/12/19 06:59:53;;;;;;;;;;;;;;;20.01;40.94;101881.25;5008895;28;19957;-49
2023/12/19 07:02:18;;;;;;;;;;;;;;;19.99;41.12;101878.72;5009484;28;19952;-49
2023/12/19 07:04:43;;;;;;;;;;;;;;;19.98;41.27;101868.94;5024021;28;19926;-48
2023/12/19 07:07:08;;;;;;;;;;;;;;;19.98;40.98;101861.69;5010446;28;19913;-46
2023/12/19 07:09:34;;;;;;;;;;;;;;;19.96;41.14;101861.00;5011887;28;19914;-47
2023/12/19 07:12:00;;;;;;;;;;;;;;;19.97;41.19;101862.69;5015751;28;20281;-49
2023/12/19 07:14:25;;;;;;;;;;;;;;;19.96;41.01;101861.00;5065911;28;20423;-47
2023/12/19 07:16:51;;;;;;;;;;;;;;;19.96;41.10;101857.44;5018727;28;19921;-47
2023/12/19 07:19:16;;;;;;;;;;;;;;;19.96;41.12;101862.81;5011482;28;19914;-46
2023/12/19 07:21:43;;;;;;;;;;;;;;;19.96;40.96;101862.81;5036046;28;19920;-47
2023/12/19 07:24:08;;;;;;;;;;;;;;;19.96;41.28;101863.72;5008864;28;20064;-47
2023/12/19 07:26:34;;;;;;;;;;;;;;;19.96;41.00;101855.59;5047118;28;19925;-46
2023/12/19 07:29:02;;;;;;;;;;;;;;;19.96;41.01;101858.31;5033614;28;19921;-46
2023/12/19 07:31:28;;;;;;;;;;;;;;;19.97;41.19;101849.19;5072457;28;19913;-46
2023/12/19 07:33:57;;;;;;;;;;;;;;;19.96;40.91;101855.59;5024850;28;19971;-48
2023/12/19 07:36:23;;;;;;;;;;;;;;;19.97;40.92;101859.16;5029292;28;19921;-46
2023/12/19 07:38:49;;;;;;;;;;;;;;;19.96;41.12;101852.91;5017901;28;19935;-49
2023/12/19 07:41:14;;;;;;;;;;;;;;;19.97;40.95;101859.16;5048274;28;19912;-49
2023/12/19 07:43:40;;;;;;;;;;;;;;;19.98;41.06;101852.75;5023423;28;19953;-44
2023/12/19 07:46:06;;;;;;;;;;;;;;;19.98;40.94;101859.00;5019030;28;20010;-47
2023/12/19 07:48:31;;;;;;;;;;;;;;;19.98;41.12;101848.19;5025055;28;19919;-45
2023/12/19 07:50:57;;;;;;;;;;;;;;;19.99;40.81;101849.03;5050033;28;19913;-47
2023/12/19 07:53:24;;;;;;;;;;;;;;;20.01;40.75;101848.88;5007683;28;19924;-45
2023/12/19 07:55:50;;;;;;;;;;;;;;;20.01;40.91;101838.06;5031515;28;19921;-48
2023/12/19 07:58:15;;;;;;;;;;;;;;;20.03;40.98;101844.19;5029639;28;19913;-48
2023/12/19 08:00:40;;;;;;;;;;;;;;;20.03;40.72;101847.72;5065986;28;19925;-46
2023/12/19 08:03:06;;;;;;;;;;;;;;;20.05;40.70;101847.56;5010936;28;19972;-45
2023/12/19 08:05:31;;;;;;;;;;;;;;;20.07;40.66;101841.03;5031798;28;19928;-45
2023/12/19 08:07:56;;;;;;;;;;;;;;;20.08;40.59;101841.88;5023540;28;20160;-49
2023/12/19 08:10:21;;;;;;;;;;;;;;;20.10;40.89;101843.44;5046681;28;20277;-47
2023/12/19 08:12:46;;;;;;;;;;;;;;;20.11;40.49;101845.13;5029220;28;19918;-45
2023/12/19 08:15:12;;;;;;;;;;;;;;;20.12;40.60;101849.50;5020879;28;19914;-45
2023/12/19 08:17:37;;;;;;;;;;;;;;;20.13;40.76;101837.69;5013650;28;20436;-47
2023/12/19 08:20:03;;;;;;;;;;;;;;;20.16;40.66;101834.69;5031806;28;20004;-47
2023/12/19 08:22:28;;;;;;;;;;;;;;;19.64;40.38;101745.47;5044842;28;19912;-47
2023/12/19 08:24:53;;;;;;;;;;;;;;;20.20;40.21;101824.44;5026402;28;19947;-47
2023/12/19 08:27:22;;;;;;;;;;;;;;;20.22;40.22;101827.84;5023126;28;19912;-46
2023/12/19 08:29:48;;;;;;;;;;;;;;;20.25;40.27;101823.97;5036067;28;19913;-48
2023/12/19 08:32:13;;;;;;;;;;;;;;;20.27;40.10;101819.28;5008217;28;19921;-46
2023/12/19 08:34:38;;;;;;;;;;;;;;;20.29;40.16;101812.69;5010350;28;19933;-46
2023/12/19 08:37:03;;;;;;;;;;;;;;;20.31;40.20;101813.41;5077352;28;19913;-48
2023/12/19 08:39:28;;;;;;;;;;;;;;;20.33;39.99;101808.69;5020180;28;19955;-45
2023/12/19 08:41:53;;;;;;;;;;;;;;;20.36;40.08;101802.97;5013215;28;20421;-46
2023/12/19 08:44:19;;;;;;;;;;;;;;;20.39;39.97;101797.28;5028032;28;19914;-48
2023/12/19 08:46:44;;;;;;;;;;;;;;;20.41;39.80;101792.53;5032851;28;19922;-49
2023/12/19 08:49:10;;;;;;;;;;;;;;;20.43;39.73;101804.06;5020702;28;19913;-49
2023/12/19 08:51:35;;;;;;;;;;;;;;;20.45;39.77;101795.78;5047267;28;19918;-45
2023/12/19 08:54:01;;;;;;;;;;;;;;;20.47;39.80;101808.13;5029608;28;20538;-49
2023/12/19 08:56:26;;;;;;;;;;;;;;;20.50;39.68;101800.75;5075989;28;19922;-47
2023/12/19 08:58:51;;;;;;;;;;;;;;;20.53;39.84;101793.19;5022750;28;19922;-50
2023/12/19 09:01:17;;;;;;;;;;;;;;;20.55;39.55;101799.25;5028415;28;19918;-51
2023/12/19 09:03:42;;;;;;;;;;;;;;;20.58;39.69;101800.81;5031971;28;19923;-51
2023/12/19 09:06:07;;;;;;;;;;;;;;;20.59;39.59;101795.22;5047851;28;19956;-50
2023/12/19 09:08:32;;;;;;;;;;;;;;;20.62;39.32;101791.38;5022213;28;20147;-50
2023/12/19 09:10:58;;;;;;;;;;;;;;;20.64;39.42;101790.19;5067221;28;19914;-51
2023/12/19 09:13:23;;;;;;;;;;;;;;;20.67;39.43;101789.88;5024296;28;19944;-48
2023/12/19 09:15:48;;;;;;;;;;;;;;;20.67;39.27;101781.78;5025347;28;20288;-45
2023/12/19 09:18:13;;;;;;;;;;;;;;;20.70;39.44;101792.28;5002726;28;20360;-50
2023/12/19 09:20:38;;;;;;;;;;;;;;;20.71;39.18;101785.84;5029373;28;19950;-50
2023/12/19 09:23:04;;;;;;;;;;;;;;;20.74;39.19;101779.31;5025775;28;19939;-47
2023/12/19 09:25:29;;;;;;;;;;;;;;;20.76;39.29;101779.97;5020053;28;19924;-46
2023/12/19 09:27:55;;;;;;;;;;;;;;;20.79;39.06;101770.72;5066525;28;19921;-48
2023/12/19 09:30:21;;;;;;;;;;;;;;;20.82;39.13;101773.09;5029376;28;19961;-47
2023/12/19 09:32:46;;;;;;;;;;;;;;;20.83;39.28;101777.50;5051993;28;19919;-49
2023/12/19 09:35:11;;;;;;;;;;;;;;;20.86;38.94;101766.38;5028445;28;20332;-48
2023/12/19 09:37:37;;;;;;;;;;;;;;;20.87;39.15;101774.31;5026350;28;20413;-48
2023/12/19 09:40:03;;;;;;;;;;;;;;;20.90;39.16;101773.16;5007154;28;19918;-49
2023/12/19 09:42:29;;;;;;;;;;;;;;;20.92;39.02;101768.41;5005301;28;19914;-46
2023/12/19 09:44:54;;;;;;;;;;;;;;;20.94;39.20;101769.97;5017932;28;19921;-47
2023/12/19 09:47:25;;;;;;;;;;;;;;;20.97;39.25;101766.91;5006579;28;19919;-47
2023/12/19 09:49:52;;;;;;;;;;;;;;;21.01;38.99;101759.34;5004708;28;20162;-49
2023/12/19 09:52:17;;;;;;;;;;;;;;;21.05;39.29;101760.69;5034339;28;19918;-47
2023/12/19 09:54:43;;;;;;;;;;;;;;;21.08;39.08;101754.13;5066026;28;19973;-46
2023/12/19 09:57:08;;;;;;;;;;;;;;;21.12;39.18;101755.50;5067968;28;19926;-49
2023/12/19 09:59:34;;;;;;;;;;;;;;;21.14;38.81;101743.50;5072965;28;20436;-47
2023/12/19 10:01:59;;;;;;;;;;;;;;;21.18;38.93;101744.88;5014700;28;19914;-47
2023/12/19 10:04:24;;;;;;;;;;;;;;;21.20;39.03;101739.31;5020965;28;19968;-50
2023/12/19 10:06:53;;;;;;;;;;;;;;;21.22;38.96;101740.81;5021510;28;19918;-46
2023/12/19 10:09:19;;;;;;;;;;;;;;;21.26;38.88;101732.41;5023135;28;19925;-47
2023/12/19 10:11:44;;;;;;;;;;;;;;;21.28;38.93;101736.63;4999923;28;19917;-47
2023/12/19 10:14:11;;;;;;;;;;;;;;;21.30;38.92;101723.78;5006960;28;19914;-48
2023/12/19 10:16:40;;;;;;;;;;;;;;;21.34;38.60;101716.22;5024251;28;20045;-49
2023/12/19 10:19:07;;;;;;;;;;;;;;;21.36;38.66;101725.00;5017354;28;19918;-48
2023/12/19 10:21:32;;;;;;;;;;;;;;;21.39;38.76;101721.97;5010832;28;19996;-50
2023/12/19 10:24:08;;;;;;;;;;;;;;;21.40;38.58;101716.38;5069068;28;19943;-47
2023/12/19 10:26:33;;;;;;;;;;;;;;;21.41;38.46;101704.59;5019106;28;19918;-47
2023/12/19 10:28:59;;;;;;;;;;;;;;;21.44;38.69;101704.22;5002904;28;19920;-48
2023/12/19 10:31:24;;;;;;;;;;;;;;;21.46;38.62;101698.66;5035795;28;19983;-45
2023/12/19 10:33:49;;;;;;;;;;;;;;;21.50;38.53;101691.06;5023960;28;19919;-50
2023/12/19 10:36:23;;;;;;;;;;;;;;;21.52;38.60;101689.88;5026973;28;19914;-47
2023/12/19 10:38:48;;;;;;;;;;;;;;;21.56;38.49;101677.69;5024592;28;19982;-49
2023/12/19 10:41:16;;;;;;;;;;;;;;;21.58;38.41;101689.22;5009357;28;20320;-50
2023/12/19 10:43:42;;;;;;;;;;;;;;;21.59;38.49;101677.38;5028534;28;20371;-47
2023/12/19 10:46:07;;;;;;;;;;;;;;;21.62;38.09;101666.22;5031154;28;19916;-47
2023/12/19 10:48:32;;;;;;;;;;;;;;;21.67;38.27;101663.84;5062970;28;20005;-47
2023/12/19 10:50:57;;;;;;;;;;;;;;;21.69;38.30;101650.13;5023039;28;19914;-44
2023/12/19 10:53:22;;;;;;;;;;;;;;;21.71;37.80;101659.78;5076956;28;20417;-47
2023/12/19 10:55:48;;;;;;;;;;;;;;;21.73;38.06;101651.50;5028967;28;19944;-45
2023/12/19 10:58:13;;;;;;;;;;;;;;;21.76;38.25;101644.91;5061961;28;19913;-47
2023/12/19 11:00:39;;;;;;;;;;;;;;;21.79;37.79;101648.13;5068822;28;19908;-46
2023/12/19 11:03:37;;;;;;;;;;;;;;;21.82;37.91;101652.34;5066234;28;19913;-47
2023/12/19 11:06:05;;;;;;;;;;;;;;;21.86;37.71;101659.09;5046830;28;20293;-49
2023/12/19 11:08:31;;;;;;;;;;;;;;;21.89;37.74;101656.06;5018811;28;19914;-48
2023/12/19 11:10:58;;;;;;;;;;;;;;;21.91;37.80;101651.31;5071226;28;19925;-46
2023/12/19 11:13:25;;;;;;;;;;;;;;;21.95;37.50;101644.53;5066867;28;19920;-49
2023/12/19 11:16:02;;;;;;;;;;;;;;;21.95;37.64;101642.66;5018155;28;19964;-46
2023/12/19 11:18:30;;;;;;;;;;;;;;;22.00;37.75;101633.19;5067717;28;19912;-48
2023/12/19 11:21:00;;;;;;;;;;;;;;;22.02;37.43;101625.75;5021063;28;19918;-48
2023/12/19 11:23:25;;;;;;;;;;;;;;;22.05;37.66;101625.41;5064906;28;19918;-49
2023/12/19 11:25:54;;;;;;;;;;;;;;;22.09;37.76;101618.63;5022919;28;20364;-49
2023/12/19 11:28:19;;;;;;;;;;;;;;;22.11;37.44;101612.03;5064372;28;19914;-49
2023/12/19 11:30:45;;;;;;;;;;;;;;;22.14;37.30;101602.75;5019250;28;19945;-49
2023/12/19 11:33:11;;;;;;;;;;;;;;;22.15;37.35;101599.84;5037381;28;19916;-45
2023/12/19 11:35:36;;;;;;;;;;;;;;;22.20;37.40;101592.03;5023453;28;19913;-48
2023/12/19 11:38:14;;;;;;;;;;;;;;;22.24;37.08;101595.25;5012372;28;19945;-48
2023/12/19 11:40:45;;;;;;;;;;;;;;;22.31;37.12;101592.72;5022480;28;20003;-50
2023/12/19 11:43:10;;;;;;;;;;;;;;;22.35;37.10;101599.47;5033835;28;19917;-46
2023/12/19 11:45:36;;;;;;;;;;;;;;;22.37;37.14;101600.13;5014648;28;19939;-51
2023/12/19 11:48:01;;;;;;;;;;;;;;;22.39;36.91;101598.94;5024239;28;19921;-48
2023/12/19 11:50:39;;;;;;;;;;;;;;;22.38;37.10;101599.94;5039812;28;19920;-50
2023/12/19 11:53:04;;;;;;;;;;;;;;;22.40;37.40;101597.06;5006694;28;19914;-56
2023/12/19 11:55:30;;;;;;;;;;;;;;;22.08;37.21;101530.28;5021996;28;20004;-46
2023/12/19 11:58:16;;;;;;;;;;;;;;;22.52;37.19;101584.00;5026872;28;19920;-50
2023/12/19 12:00:41;;;;;;;;;;;;;;;22.58;36.96;101586.00;5013744;28;19940;-49
2023/12/19 12:03:07;;;;;;;;;;;;;;;22.59;36.86;101582.25;5030530;28;19914;-45
2023/12/19 12:05:32;;;;;;;;;;;;;;;22.62;36.91;101573.78;5042609;28;19933;-49
2023/12/19 12:07:57;;;;;;;;;;;;;;;22.67;36.89;101569.50;5008924;28;19914;-57
2023/12/19 12:10:24;;;;;;;;;;;;;;;22.68;37.14;101570.34;5015065;28;19914;-51
2023/12/19 12:12:49;;;;;;;;;;;;;;;22.73;36.74;101559.81;5038616;28;19912;-53
2023/12/19 12:15:17;;;;;;;;;;;;;;;22.75;36.77;101560.47;5038613;28;20011;-51
2023/12/19 12:17:45;;;;;;;;;;;;;;;22.77;36.87;101550.31;5019153;28;19918;-51
2023/12/19 12:20:10;;;;;;;;;;;;;;;22.78;37.04;101543.88;5020022;28;19923;-52
2023/12/19 12:22:36;;;;;;;;;;;;;;;22.80;36.78;101530.97;5028055;28;19913;-49
2023/12/19 12:25:01;;;;;;;;;;;;;;;22.79;37.08;101521.16;5028613;28;19928;-49
2023/12/19 12:27:27;;;;;;;;;;;;;;;22.80;36.99;101530.97;5026195;28;19918;-51